Edinburgh Airport, United Kingdom

7:17 PM BST on August 23, 2014 (GMT +0100)
Edinburgh Airport | Change Station
CLOSE
Current Station
Airport
Location: Edinburgh Airport,
Elevation: 135 ft
Nearby Weather Stations

Elev 135 ft 55.95 °N, 3.35 °W | Updated 27 minutes ago

Partly Cloudy
Partly Cloudy
54 °F
Feels Like 54 °F
N
5
Wind Variable Wind from West

Today
High -- | Low -- °F
--% Chance of Precip.
Yesterday
High -- | Low -- °F
Precip. -- in
5:59 AM 8:30 PM
Waning Crescent, 3% visible
Pressure 29.95 in
Visibility 6.2 miles
Clouds Few 4600 ft
Dew Point 46 °F
Humidity 77%
Rainfall 0.00 in
Snow Depth Not available.
UV 1 out of 12
Pollen Not available.
Air Quality Not available.
Flu Activity Not available.
METAR EGPH 231750Z 27004KT 9999 FEW046 12/08 Q1014

More Conditions Fewer Conditions

Pressure 29.95 in
Visibility 6.2 miles
Clouds Few 4600 ft
Dew Point 46 °F
Humidity 77%
Rainfall 0.00 in
Snow Depth Not available.
UV 1 out of 12
Pollen Not available.
Air Quality Not available.
Flu Activity Not available.
METAR EGPH 231750Z 27004KT 9999 FEW046 12/08 Q1014

More Conditions Fewer Conditions

10-Day Weather Forecast

Almanac

Astronomy

Aug. 23, 2014 Rise Set
Actual Time 5:59 AM BST 8:30 PM BST
Civil Twilight 5:18 AM BST 9:11 PM BST
Nautical Twilight 4:24 AM BST 10:05 PM BST
Astronomical Twilight 3:16 AM BST 11:11 PM BST
Moon 3:54 AM BST 7:10 PM BST
Length of Visible Light 15h 53m
Length of Day
14h 31m
Tomorrow will be 4m 27s shorter.
Waning Crescent, 3% of the Moon is Illuminated
Today
Waning Crescent
Aug 25
New
Sep 2
First Quarter
Sep 8
Full
Sep 15
Last Quarter

Today's Extremes

Country Highs Country Lows

Community

WunderPhotos

Upload Photos

1,746,551 photos uploaded!

WunderBlogs® & News

By Dr. Jeff Masters
Director of Meteorology, Weather Underground
By Kari Strenfel
Meteorologist, Weather Underground
By Christopher C. Burt
Weather Historian, Weather Underground
August 23, 2014
August 23, 2014
August 23, 2014

Nearby

Snow Depth

Not available.

Earthquake Activity

City Distance Mag. Time & Date
No recent earthquake activity has been reported nearby.
Minimum magnitude displayed is 2.5.

Coastal Water Temperatures

Place Temperature
No Stations Reporting

Nearby Weather Stations